Terminal Aerodrome Forecast
Issued by NWS Burlington, VT

Home | Current Version | Previous Version | Text Only | Print | Product List | Glossary On
Versions: 1 2 3 4 5 6 7 8 9 10 11 12 13 14 15 16
871
FTUS41 KBTV 200536
TAFBTV
TAF
KBTV 200536Z 2006/2106 32011KT 5SM -SHSN OVC027
      TEMPO 2011/2013 31014KT 2SM -SHSN BR OVC020
     FM201400 31014KT P6SM -SHSN OVC020
     FM201600 33012KT P6SM VCSH OVC025
     FM202000 33014KT P6SM OVC035
     FM210300 32004KT P6SM BKN045=

USA.gov is the U.S. government's official web portal to all federal, state and local government web resources and services.